createdAt,value
2023-02-26T00:00:12.128Z,1.02
2023-02-26T00:02:38.811Z,1.90
2023-02-26T00:05:06.503Z,2.24
2023-02-26T00:07:33.095Z,1.63
2023-02-26T00:10:01.503Z,2.11
2023-02-26T00:12:29.384Z,1.58
2023-02-26T00:14:56.334Z,0.89
2023-02-26T00:17:31.533Z,0.53
2023-02-26T00:19:58.531Z,0.53
2023-02-26T00:22:25.285Z,0.84
2023-02-26T00:24:51.921Z,1.01
2023-02-26T00:27:18.540Z,1.06
2023-02-26T00:29:45.620Z,1.10
2023-02-26T00:32:13.079Z,1.16
2023-02-26T00:34:40.550Z,1.63
2023-02-26T00:37:46.162Z,1.45
2023-02-26T00:40:34.284Z,2.25
2023-02-26T00:43:01.336Z,1.94
2023-02-26T00:45:28.240Z,2.12
2023-02-26T00:48:19.707Z,1.82
2023-02-26T00:51:00.293Z,2.24
2023-02-26T00:53:43.016Z,2.57
2023-02-26T00:56:09.572Z,2.58
2023-02-26T00:58:36.372Z,2.79
2023-02-26T01:01:02.995Z,2.76
2023-02-26T01:03:32.583Z,2.89
2023-02-26T01:05:59.410Z,2.97
2023-02-26T01:08:37.673Z,2.98
2023-02-26T01:11:04.704Z,2.79
2023-02-26T01:13:31.373Z,2.95
2023-02-26T01:16:07.411Z,3.02
2023-02-26T01:18:44.942Z,3.00
2023-02-26T01:21:17.833Z,2.92
2023-02-26T01:23:50.158Z,2.92
2023-02-26T01:26:27.535Z,2.56
2023-02-26T01:28:54.924Z,2.82
2023-02-26T01:31:53.452Z,2.71
2023-02-26T01:34:41.900Z,2.93
2023-02-26T01:37:21.727Z,2.15
2023-02-26T01:40:09.141Z,1.89
2023-02-26T01:42:39.451Z,1.52
2023-02-26T01:45:16.702Z,1.86
2023-02-26T01:47:58.417Z,1.82
2023-02-26T01:50:29.889Z,2.09
2023-02-26T01:53:09.958Z,1.47
2023-02-26T01:55:36.718Z,1.26
2023-02-26T01:58:03.680Z,1.69
2023-02-26T02:00:31.600Z,1.01
2023-02-26T02:02:59.383Z,0.67
2023-02-26T02:05:32.200Z,1.16
2023-02-26T02:08:00.204Z,1.53
2023-02-26T02:10:28.126Z,1.70
2023-02-26T02:13:16.972Z,1.42
2023-02-26T02:15:54.024Z,0.95
2023-02-26T02:18:53.411Z,0.50
2023-02-26T02:21:41.890Z,0.83
2023-02-26T02:24:25.383Z,0.88
2023-02-26T02:27:26.749Z,0.95
2023-02-26T02:30:14.886Z,1.03
2023-02-26T02:32:55.130Z,1.28
2023-02-26T02:35:29.208Z,0.44
2023-02-26T02:38:08.315Z,1.26
2023-02-26T02:40:43.333Z,0.54
2023-02-26T02:43:21.190Z,0.76
2023-02-26T02:46:10.393Z,1.05
2023-02-26T02:48:41.641Z,0.58
2023-02-26T02:51:39.546Z,1.01
2023-02-26T02:54:21.362Z,0.70
2023-02-26T02:56:56.399Z,1.22
2023-02-26T02:59:39.590Z,0.31
2023-02-26T03:02:21.259Z,0.39
2023-02-26T03:04:48.378Z,1.01
2023-02-26T03:07:15.354Z,1.21
2023-02-26T03:09:43.060Z,0.85
2023-02-26T03:12:11.774Z,0.52
2023-02-26T03:14:39.653Z,-0.03
2023-02-26T03:17:14.241Z,0.55
2023-02-26T03:19:58.616Z,0.18
2023-02-26T03:22:39.409Z,0.97
2023-02-26T03:25:17.632Z,0.68
2023-02-26T03:28:07.844Z,0.10
2023-02-26T03:30:45.658Z,0.67
2023-02-26T03:33:27.416Z,0.53
2023-02-26T03:36:11.488Z,0.50
2023-02-26T03:38:58.527Z,-0.30
2023-02-26T03:41:37.244Z,0.32
2023-02-26T03:44:30.963Z,0.45
2023-02-26T03:47:03.382Z,0.15
2023-02-26T03:49:34.793Z,0.11
2023-02-26T03:52:04.052Z,0.14
2023-02-26T03:55:16.364Z,-0.01
2023-02-26T03:57:58.163Z,-0.11
2023-02-26T04:00:59.154Z,0.31
2023-02-26T04:03:33.473Z,0.82
2023-02-26T04:06:04.768Z,0.04
2023-02-26T04:08:31.840Z,0.40
2023-02-26T04:11:04.581Z,0.72
2023-02-26T04:13:31.787Z,0.41
2023-02-26T04:15:58.426Z,0.60
2023-02-26T04:18:25.367Z,-0.04
2023-02-26T04:20:52.137Z,0.24
2023-02-26T04:23:19.441Z,-0.02
2023-02-26T04:25:46.560Z,0.46
2023-02-26T04:28:15.396Z,-0.01
2023-02-26T04:30:42.035Z,0.51
2023-02-26T04:33:11.069Z,0.27
2023-02-26T04:35:37.663Z,0.44
2023-02-26T04:38:05.323Z,0.26
2023-02-26T04:40:32.164Z,0.32
2023-02-26T04:42:58.801Z,0.88
2023-02-26T04:45:27.636Z,0.83
2023-02-26T04:47:54.182Z,0.98
2023-02-26T04:50:21.286Z,0.79
2023-02-26T04:52:51.227Z,1.06
2023-02-26T04:55:17.929Z,0.98
2023-02-26T04:57:44.656Z,0.97
2023-02-26T05:00:11.928Z,1.26
2023-02-26T05:02:39.686Z,0.96
2023-02-26T05:05:07.208Z,1.27
2023-02-26T05:07:34.299Z,1.14
2023-02-26T05:10:00.863Z,1.14
2023-02-26T05:12:27.985Z,1.29
2023-02-26T05:14:54.691Z,1.53
2023-02-26T05:17:21.240Z,1.48
2023-02-26T05:19:47.948Z,1.64
2023-02-26T05:22:15.466Z,1.41
2023-02-26T05:24:42.052Z,1.57
2023-02-26T05:27:08.625Z,1.52
2023-02-26T05:29:41.069Z,1.18
2023-02-26T05:32:09.278Z,1.44
2023-02-26T05:34:35.879Z,1.54
2023-02-26T05:37:02.516Z,1.42
2023-02-26T05:39:29.422Z,1.31
2023-02-26T05:41:56.948Z,1.23
2023-02-26T05:44:23.652Z,1.46
2023-02-26T05:46:50.382Z,1.07
2023-02-26T05:49:17.032Z,1.36
2023-02-26T05:51:43.632Z,1.46
2023-02-26T05:54:10.473Z,1.40
2023-02-26T05:56:37.082Z,1.45
2023-02-26T05:59:04.058Z,1.49
2023-02-26T06:01:30.930Z,1.55
2023-02-26T06:03:57.505Z,1.60
2023-02-26T06:06:25.781Z,1.61
2023-02-26T06:08:52.637Z,0.71
2023-02-26T06:11:19.298Z,0.72
2023-02-26T06:13:45.851Z,0.65
2023-02-26T06:16:12.454Z,0.45
2023-02-26T06:18:39.017Z,0.94
2023-02-26T06:21:06.225Z,0.77
2023-02-26T06:23:32.822Z,0.56
2023-02-26T06:25:59.899Z,0.79
2023-02-26T06:28:26.822Z,1.20
2023-02-26T06:30:54.146Z,1.03
2023-02-26T06:33:20.952Z,0.74
2023-02-26T06:35:47.615Z,0.45
2023-02-26T06:38:14.596Z,0.41
2023-02-26T06:40:41.674Z,-0.03
2023-02-26T06:43:08.770Z,0.68
2023-02-26T06:45:35.526Z,1.12
2023-02-26T06:48:02.537Z,0.87
2023-02-26T06:50:29.115Z,0.15
2023-02-26T06:52:55.828Z,0.50
2023-02-26T06:55:26.791Z,0.81
2023-02-26T06:57:55.135Z,0.67
2023-02-26T07:00:22.502Z,0.30
2023-02-26T07:02:50.256Z,0.82
2023-02-26T07:05:17.269Z,0.23
2023-02-26T07:07:44.160Z,0.51
2023-02-26T07:10:12.354Z,0.59
2023-02-26T07:12:38.965Z,0.51
2023-02-26T07:15:07.109Z,0.29
2023-02-26T07:17:33.668Z,0.58
2023-02-26T07:20:06.149Z,0.18
2023-02-26T07:22:33.600Z,0.48
2023-02-26T07:25:00.436Z,-0.02
2023-02-26T07:27:27.089Z,-0.27
2023-02-26T07:29:53.645Z,-0.38
2023-02-26T07:32:20.276Z,-0.49
2023-02-26T07:34:46.917Z,-0.44
2023-02-26T07:37:13.751Z,-0.51
2023-02-26T07:39:40.344Z,-0.71
2023-02-26T07:42:06.889Z,-0.78
2023-02-26T07:44:33.721Z,-0.29
2023-02-26T07:47:00.348Z,-0.53
2023-02-26T07:49:27.093Z,-0.09
2023-02-26T07:51:53.901Z,0.21
2023-02-26T07:54:20.809Z,-0.51
2023-02-26T07:56:47.401Z,-0.90
2023-02-26T07:59:13.956Z,-1.69
2023-02-26T08:01:40.575Z,-1.64
2023-02-26T08:04:07.245Z,-1.38
2023-02-26T08:06:34.564Z,-0.92
2023-02-26T08:09:01.916Z,-1.23
2023-02-26T08:11:28.571Z,-0.99
2023-02-26T08:13:55.272Z,-1.10
2023-02-26T08:16:21.795Z,-1.37
2023-02-26T08:18:48.601Z,-1.13
2023-02-26T08:21:16.077Z,-1.15
2023-02-26T08:23:42.645Z,-0.42
2023-02-26T08:26:11.026Z,-0.97
2023-02-26T08:28:37.744Z,-0.68
2023-02-26T08:31:04.693Z,-1.46
2023-02-26T08:33:31.770Z,-0.84
2023-02-26T08:35:59.174Z,-1.16
2023-02-26T08:38:27.794Z,-1.31
2023-02-26T08:40:54.920Z,-0.79
2023-02-26T08:43:21.597Z,-0.88
2023-02-26T08:45:48.597Z,-1.07
2023-02-26T08:48:15.554Z,-1.35
2023-02-26T08:50:42.204Z,-1.28
2023-02-26T08:53:08.795Z,-1.11
2023-02-26T08:55:35.437Z,-0.95
2023-02-26T08:58:02.282Z,-1.25
2023-02-26T09:00:29.711Z,-0.75
2023-02-26T09:02:56.503Z,-0.59
2023-02-26T09:05:23.613Z,-0.87
2023-02-26T09:07:50.289Z,-1.01
2023-02-26T09:10:17.301Z,-1.05
2023-02-26T09:12:44.669Z,-1.26
2023-02-26T09:15:12.436Z,-1.08
2023-02-26T09:17:39.876Z,-1.19
2023-02-26T09:20:07.370Z,-0.99
2023-02-26T09:22:34.018Z,-1.27
2023-02-26T09:25:00.999Z,-1.47
2023-02-26T09:27:27.597Z,-1.14
2023-02-26T09:29:54.162Z,-1.39
2023-02-26T09:32:20.996Z,-1.29
2023-02-26T09:34:47.677Z,-1.36
2023-02-26T09:37:15.337Z,-1.33
2023-02-26T09:39:41.907Z,-0.97
2023-02-26T09:42:18.396Z,-0.93
2023-02-26T09:44:45.650Z,-1.19
2023-02-26T09:47:16.494Z,-1.27
2023-02-26T09:50:06.153Z,-0.92
2023-02-26T09:52:50.989Z,-1.18
2023-02-26T09:55:46.698Z,-0.94
2023-02-26T09:58:22.561Z,-0.62
2023-02-26T10:01:08.455Z,-0.88
2023-02-26T10:03:52.914Z,-1.19
2023-02-26T10:06:27.663Z,-1.34
2023-02-26T10:09:11.484Z,-1.46
2023-02-26T10:11:40.905Z,-1.18
2023-02-26T10:14:16.497Z,-1.21
2023-02-26T10:16:47.107Z,-0.98
2023-02-26T10:19:18.448Z,-1.03
2023-02-26T10:21:51.615Z,-1.34
2023-02-26T10:24:24.024Z,-1.16
2023-02-26T10:27:16.327Z,-1.17
2023-02-26T10:29:49.504Z,-0.99
2023-02-26T10:32:24.768Z,-0.92
2023-02-26T10:35:01.826Z,-1.13
2023-02-26T10:37:53.022Z,-0.53
2023-02-26T10:40:34.388Z,-0.87
2023-02-26T10:43:12.370Z,-0.67
2023-02-26T10:45:39.527Z,-0.93
2023-02-26T10:48:21.352Z,-0.91
2023-02-26T10:50:52.866Z,-0.51
2023-02-26T10:53:21.810Z,-1.04
2023-02-26T10:55:58.669Z,-0.61
2023-02-26T10:58:26.346Z,-0.53
2023-02-26T11:00:55.392Z,-0.40
2023-02-26T11:03:34.661Z,-0.70
2023-02-26T11:06:06.598Z,-0.60
2023-02-26T11:08:54.888Z,-0.48
2023-02-26T11:11:41.270Z,-0.29
2023-02-26T11:14:08.969Z,-0.25
2023-02-26T11:16:41.548Z,-0.44
2023-02-26T11:19:09.027Z,-0.71
2023-02-26T11:21:40.320Z,-0.66
2023-02-26T11:24:34.185Z,-0.82
2023-02-26T11:27:04.039Z,-0.85
2023-02-26T11:29:38.531Z,-0.76
2023-02-26T11:32:06.194Z,-0.76
2023-02-26T11:34:32.868Z,-0.80
2023-02-26T11:37:01.503Z,-0.84
2023-02-26T11:39:32.853Z,-0.76
2023-02-26T11:42:01.606Z,-0.90
2023-02-26T11:44:37.382Z,-0.59
2023-02-26T11:47:26.735Z,-0.67
2023-02-26T11:49:55.054Z,-0.74
2023-02-26T11:52:35.935Z,-0.94
2023-02-26T11:55:24.693Z,-0.81
2023-02-26T11:57:56.742Z,-0.40
2023-02-26T12:00:30.941Z,-0.63
2023-02-26T12:03:04.546Z,-0.63
2023-02-26T12:05:32.009Z,-0.57
2023-02-26T12:07:58.693Z,-0.57
2023-02-26T12:10:39.054Z,-0.77
2023-02-26T12:13:43.853Z,-0.50
2023-02-26T12:16:35.820Z,-0.37
2023-02-26T12:19:27.174Z,-0.58
2023-02-26T12:22:15.677Z,-0.09
2023-02-26T12:25:14.200Z,-0.44
2023-02-26T12:28:12.879Z,-0.48
2023-02-26T12:30:54.764Z,-0.42
2023-02-26T12:33:49.340Z,-0.33
2023-02-26T12:36:56.570Z,-0.50
2023-02-26T12:39:36.631Z,-0.34
2023-02-26T12:42:31.620Z,-0.39
2023-02-26T12:45:16.626Z,-0.17
2023-02-26T12:48:04.114Z,-0.67
2023-02-26T12:51:04.741Z,-0.85
2023-02-26T12:53:49.639Z,-0.56
2023-02-26T12:56:25.193Z,-0.38
2023-02-26T12:59:24.204Z,-0.33
2023-02-26T13:02:24.857Z,-0.29
2023-02-26T13:05:23.747Z,0.02
2023-02-26T13:08:21.650Z,0.03
2023-02-26T13:10:52.588Z,-0.15
2023-02-26T13:14:00.854Z,-0.57
2023-02-26T13:16:54.520Z,-0.50
2023-02-26T13:19:43.172Z,-0.76
2023-02-26T13:22:38.017Z,-0.37
2023-02-26T13:25:19.330Z,0.01
2023-02-26T13:27:47.738Z,-0.46
2023-02-26T13:30:26.939Z,-0.40
2023-02-26T13:32:56.907Z,-0.46
2023-02-26T13:35:40.165Z,-0.09
2023-02-26T13:38:40.941Z,-0.13
2023-02-26T13:41:29.325Z,0.07
2023-02-26T13:44:04.938Z,-0.07
2023-02-26T13:46:52.629Z,-0.15
2023-02-26T13:49:40.561Z,0.06
2023-02-26T13:52:24.225Z,-0.24
2023-02-26T13:54:50.889Z,0.01
2023-02-26T13:57:32.429Z,-0.05
2023-02-26T14:00:12.722Z,-0.06
2023-02-26T14:02:45.482Z,0.07
2023-02-26T14:05:35.609Z,-0.15
2023-02-26T14:08:02.086Z,0.30
2023-02-26T14:10:54.280Z,-0.25
2023-02-26T14:13:23.964Z,0.01
2023-02-26T14:16:00.753Z,-0.02
2023-02-26T14:19:03.703Z,0.03
2023-02-26T14:21:30.264Z,0.09
2023-02-26T14:24:36.769Z,0.03
2023-02-26T14:27:12.634Z,-0.08
2023-02-26T14:29:53.447Z,0.06
2023-02-26T14:32:31.600Z,0.08
2023-02-26T14:35:05.231Z,-0.08
2023-02-26T14:37:37.248Z,-0.22
2023-02-26T14:40:15.902Z,0.13
2023-02-26T14:42:57.974Z,0.05
2023-02-26T14:45:37.253Z,-0.11
2023-02-26T14:48:06.708Z,0.23
2023-02-26T14:50:51.034Z,-0.04
2023-02-26T14:53:46.940Z,0.21
2023-02-26T14:56:39.517Z,0.13
2023-02-26T14:59:39.084Z,0.29
2023-02-26T15:02:30.834Z,0.17
2023-02-26T15:04:57.305Z,0.46
2023-02-26T15:07:51.435Z,0.58
2023-02-26T15:10:49.091Z,0.45
2023-02-26T15:13:40.555Z,0.45
2023-02-26T15:16:34.676Z,0.66
2023-02-26T15:19:29.072Z,0.71
2023-02-26T15:22:30.372Z,-0.35
2023-02-26T15:24:57.515Z,-0.20
2023-02-26T15:27:24.110Z,-0.33
2023-02-26T15:29:52.954Z,-0.37
2023-02-26T15:32:25.849Z,0.05
2023-02-26T15:35:04.635Z,-0.17
2023-02-26T15:37:35.201Z,0.11
2023-02-26T15:40:05.655Z,0.18
2023-02-26T15:42:38.349Z,0.10
2023-02-26T15:45:31.316Z,0.26
2023-02-26T15:48:01.690Z,0.49
2023-02-26T15:50:31.208Z,0.54
2023-02-26T15:53:04.118Z,0.71
2023-02-26T15:55:47.483Z,0.57
2023-02-26T15:58:20.631Z,0.95
2023-02-26T16:00:54.017Z,0.70
2023-02-26T16:03:36.433Z,0.32
2023-02-26T16:06:03.570Z,0.40
2023-02-26T16:08:30.160Z,-0.13
2023-02-26T16:10:59.636Z,-0.52
2023-02-26T16:13:32.379Z,-0.32
2023-02-26T16:16:04.115Z,-0.29
2023-02-26T16:18:32.744Z,-0.14
2023-02-26T16:21:02.123Z,-0.02
2023-02-26T16:23:43.741Z,0.00
2023-02-26T16:26:33.709Z,-0.07
2023-02-26T16:29:10.912Z,0.33
2023-02-26T16:31:37.979Z,0.15
2023-02-26T16:34:22.767Z,-0.09
2023-02-26T16:36:49.734Z,0.05
2023-02-26T16:39:22.933Z,-0.32
2023-02-26T16:42:02.212Z,-0.20
2023-02-26T16:44:31.537Z,-0.45
2023-02-26T16:46:59.614Z,-0.30
2023-02-26T16:49:31.495Z,-0.19
2023-02-26T16:51:59.686Z,-0.17
2023-02-26T16:54:36.265Z,-0.29
2023-02-26T16:57:24.037Z,-0.07
2023-02-26T16:59:55.766Z,-0.08
2023-02-26T17:02:29.685Z,-0.14
2023-02-26T17:05:02.553Z,0.23
2023-02-26T17:07:34.577Z,0.07
2023-02-26T17:10:09.407Z,0.21
2023-02-26T17:12:46.691Z,-0.09
2023-02-26T17:15:38.347Z,-0.23
2023-02-26T17:18:05.204Z,-0.09
2023-02-26T17:20:32.824Z,0.10
2023-02-26T17:23:01.291Z,0.35
2023-02-26T17:25:41.701Z,0.23
2023-02-26T17:28:13.073Z,0.11
2023-02-26T17:30:40.414Z,0.41
2023-02-26T17:33:13.344Z,0.23
2023-02-26T17:35:40.967Z,0.07
2023-02-26T17:38:13.136Z,0.27
2023-02-26T17:40:41.159Z,0.20
2023-02-26T17:43:09.834Z,-0.04
2023-02-26T17:45:40.042Z,0.11
2023-02-26T17:48:07.558Z,-0.20
2023-02-26T17:50:54.488Z,-0.04
2023-02-26T17:53:23.744Z,-0.35
2023-02-26T17:55:53.228Z,-0.56
2023-02-26T17:58:28.660Z,-0.76
2023-02-26T18:00:55.872Z,-0.38
2023-02-26T18:03:22.773Z,-0.30
2023-02-26T18:05:51.862Z,-0.49
2023-02-26T18:08:27.715Z,-0.35
2023-02-26T18:10:55.523Z,-0.52
2023-02-26T18:13:23.312Z,-0.13
2023-02-26T18:15:51.179Z,-0.48
2023-02-26T18:18:19.703Z,-0.41
2023-02-26T18:20:46.354Z,-0.36
2023-02-26T18:23:13.818Z,-0.48
2023-02-26T18:25:41.714Z,-0.43
2023-02-26T18:28:14.974Z,-0.17
2023-02-26T18:30:44.390Z,-0.27
2023-02-26T18:33:12.973Z,-0.45
2023-02-26T18:35:45.789Z,-0.35
2023-02-26T18:38:14.907Z,-0.56
2023-02-26T18:40:42.273Z,-0.70
2023-02-26T18:43:12.322Z,-0.62
2023-02-26T18:45:46.987Z,-0.68
2023-02-26T18:48:16.187Z,-0.63
2023-02-26T18:50:44.431Z,-0.54
2023-02-26T18:53:11.589Z,-0.57
2023-02-26T18:55:38.432Z,-0.62
2023-02-26T18:58:05.039Z,-0.41
2023-02-26T19:00:31.784Z,-0.55
2023-02-26T19:02:58.329Z,-0.59
2023-02-26T19:05:26.532Z,-0.54
2023-02-26T19:07:54.494Z,-0.86
2023-02-26T19:10:21.540Z,-0.87
2023-02-26T19:12:48.228Z,-0.65
2023-02-26T19:15:14.804Z,-0.58
2023-02-26T19:17:42.084Z,-0.78
2023-02-26T19:20:09.467Z,-0.88
2023-02-26T19:22:36.001Z,-0.83
2023-02-26T19:25:02.730Z,-0.57
2023-02-26T19:27:29.493Z,-0.86
2023-02-26T19:29:56.090Z,-0.99
2023-02-26T19:32:22.911Z,-0.59
2023-02-26T19:34:49.727Z,-0.51
2023-02-26T19:37:16.592Z,-0.98
2023-02-26T19:39:43.352Z,-0.89
2023-02-26T19:42:10.303Z,-0.64
2023-02-26T19:44:36.848Z,-0.70
2023-02-26T19:47:03.593Z,-0.98
2023-02-26T19:49:30.151Z,-0.75
2023-02-26T19:51:56.727Z,-0.81
2023-02-26T19:54:23.295Z,-0.71
2023-02-26T19:56:50.241Z,-1.03
2023-02-26T19:59:17.451Z,-0.81
2023-02-26T20:01:46.239Z,-0.72
2023-02-26T20:04:13.559Z,-0.61
2023-02-26T20:06:40.242Z,-0.58
2023-02-26T20:09:07.281Z,-0.98
2023-02-26T20:11:34.648Z,-0.77
2023-02-26T20:14:02.367Z,-0.88
2023-02-26T20:16:28.967Z,-0.90
2023-02-26T20:18:55.555Z,-0.95
2023-02-26T20:21:23.257Z,-0.80
2023-02-26T20:23:50.063Z,-0.82
2023-02-26T20:26:17.011Z,-0.87
2023-02-26T20:28:44.176Z,-1.07
2023-02-26T20:31:11.715Z,-0.65
2023-02-26T20:33:39.397Z,-0.69
2023-02-26T20:36:07.928Z,-1.07
2023-02-26T20:38:35.038Z,-0.95
2023-02-26T20:41:01.720Z,-0.81
2023-02-26T20:43:28.263Z,-1.08
2023-02-26T20:45:56.486Z,-0.79
2023-02-26T20:48:24.195Z,-1.03
2023-02-26T20:50:53.474Z,-1.02
2023-02-26T20:53:21.568Z,-0.96
2023-02-26T20:55:48.312Z,-0.87
2023-02-26T20:58:14.917Z,-0.82
2023-02-26T21:00:41.626Z,-1.05
2023-02-26T21:03:08.270Z,-1.00
2023-02-26T21:05:35.504Z,-0.91
2023-02-26T21:08:04.170Z,-0.99
2023-02-26T21:10:32.561Z,-1.08
2023-02-26T21:12:59.950Z,-1.05
2023-02-26T21:15:26.834Z,-1.10
2023-02-26T21:17:53.820Z,-1.32
2023-02-26T21:20:22.175Z,-1.14
2023-02-26T21:22:49.658Z,-1.05
2023-02-26T21:25:17.071Z,-1.17
2023-02-26T21:27:43.816Z,-1.14
2023-02-26T21:30:12.335Z,-1.26
2023-02-26T21:32:39.923Z,-1.37
2023-02-26T21:35:09.077Z,-1.27
2023-02-26T21:37:35.692Z,-1.42
2023-02-26T21:40:02.285Z,-0.97
2023-02-26T21:42:28.864Z,-1.38
2023-02-26T21:44:55.414Z,-1.40
2023-02-26T21:47:21.965Z,-1.02
2023-02-26T21:49:48.623Z,-1.20
2023-02-26T21:52:15.529Z,-1.31
2023-02-26T21:54:43.629Z,-1.64
2023-02-26T21:57:10.325Z,-1.44
2023-02-26T21:59:36.872Z,-1.40
2023-02-26T22:02:04.432Z,-1.40
2023-02-26T22:04:31.310Z,-1.54
2023-02-26T22:06:57.853Z,-1.66
2023-02-26T22:09:24.497Z,-1.74
2023-02-26T22:11:51.094Z,-1.47
2023-02-26T22:14:17.848Z,-1.51
2023-02-26T22:16:44.628Z,-1.12
2023-02-26T22:19:11.339Z,-1.55
2023-02-26T22:21:37.921Z,-1.59
2023-02-26T22:24:05.237Z,-1.45
2023-02-26T22:26:31.900Z,-1.63
2023-02-26T22:29:00.518Z,-1.42
2023-02-26T22:31:29.203Z,-1.50
2023-02-26T22:33:57.247Z,-1.64
2023-02-26T22:36:24.809Z,-1.58
2023-02-26T22:38:51.353Z,-1.52
2023-02-26T22:41:17.920Z,-1.80
2023-02-26T22:43:44.447Z,-1.47
2023-02-26T22:46:11.072Z,-1.21
2023-02-26T22:48:37.633Z,-1.50
2023-02-26T22:51:04.281Z,-1.46
2023-02-26T22:53:31.857Z,-1.63
2023-02-26T22:55:58.621Z,-1.69
2023-02-26T22:58:25.172Z,-1.37
2023-02-26T23:00:58.935Z,-1.84
2023-02-26T23:03:25.462Z,-1.77
2023-02-26T23:05:52.514Z,-1.51
2023-02-26T23:08:19.088Z,-1.54
2023-02-26T23:10:45.749Z,-1.61
2023-02-26T23:13:12.582Z,-1.78
2023-02-26T23:15:39.236Z,-1.77
2023-02-26T23:18:05.784Z,-1.73
2023-02-26T23:20:32.344Z,-1.54
2023-02-26T23:22:58.884Z,-1.55
2023-02-26T23:25:26.591Z,-1.65
2023-02-26T23:27:53.505Z,-1.78
2023-02-26T23:30:21.819Z,-1.93
2023-02-26T23:32:48.965Z,-1.95
2023-02-26T23:35:15.604Z,-1.82
2023-02-26T23:37:42.149Z,-1.81
2023-02-26T23:40:10.350Z,-1.60
2023-02-26T23:42:36.908Z,-1.70
2023-02-26T23:45:03.648Z,-1.86
2023-02-26T23:47:30.243Z,-1.79
2023-02-26T23:49:56.854Z,-1.58
2023-02-26T23:52:25.610Z,-1.08
2023-02-26T23:54:54.417Z,-1.67
2023-02-26T23:57:20.978Z,-1.75
2023-02-26T23:59:47.542Z,-1.60
